Time;durP1;ratioP1;P1;durP2;ratioP2;P2;SDS_P1;SDS_P2;PMS_P1;PMS_P2;Temp;Humidity;BMP_temperature;BMP_pressure;BME280_temperature;BME280_humidity;BME280_pressure;Samples;Min_cycle;Max_cycle;Signal;HPM_P1;HPM_P2
2024/01/29 00:01:04;;;;;;;4.80;3.57;;;;;;;4.29;53.01;96707.28;5028914;28;20285;-76
2024/01/29 00:03:30;;;;;;;4.47;3.10;;;;;;;4.22;53.27;96705.97;5030346;28;20188;-76
2024/01/29 00:05:55;;;;;;;4.80;4.03;;;;;;;4.17;53.57;96707.97;5029219;28;20193;-76
2024/01/29 00:08:21;;;;;;;7.60;5.20;;;;;;;4.10;53.54;96712.56;4996642;28;20650;-76
2024/01/29 00:10:46;;;;;;;6.27;4.23;;;;;;;4.02;54.08;96707.00;5029904;28;20216;-76
2024/01/29 00:13:11;;;;;;;5.60;4.07;;;;;;;3.93;54.85;96705.72;5029111;28;20214;-76
2024/01/29 00:15:37;;;;;;;5.67;3.83;;;;;;;3.90;55.22;96707.63;5001028;28;20193;-76
2024/01/29 00:18:02;;;;;;;3.60;2.80;;;;;;;3.88;54.84;96714.56;5030481;28;20199;-76
2024/01/29 00:20:27;;;;;;;4.27;2.33;;;;;;;3.82;54.85;96707.19;5028858;28;20333;-76
2024/01/29 00:22:53;;;;;;;4.50;2.30;;;;;;;3.88;54.33;96717.16;5006780;28;20193;-76
2024/01/29 00:25:18;;;;;;;2.70;2.00;;;;;;;3.89;54.48;96708.56;5030279;28;20209;-76
2024/01/29 00:27:43;;;;;;;3.63;2.73;;;;;;;3.82;54.74;96714.91;5029065;28;20190;-76
2024/01/29 00:30:09;;;;;;;3.43;2.50;;;;;;;3.78;54.60;96710.81;5017883;28;20218;-76
2024/01/29 00:32:35;;;;;;;3.53;2.37;;;;;;;3.73;55.22;96712.81;5006494;28;20199;-76
2024/01/29 00:35:00;;;;;;;2.80;2.13;;;;;;;3.71;55.53;96715.47;5028935;28;20194;-76
2024/01/29 00:37:26;;;;;;;3.00;2.20;;;;;;;3.72;55.28;96706.00;5000899;28;20248;-76
2024/01/29 00:39:52;;;;;;;2.53;2.10;;;;;;;3.74;55.07;96709.31;5011723;28;20725;-76
2024/01/29 00:42:18;;;;;;;3.43;2.20;;;;;;;3.76;54.47;96708.34;4995730;28;20276;-76
2024/01/29 00:44:44;;;;;;;4.07;2.30;;;;;;;3.80;54.27;96706.41;5008305;28;20183;-75
2024/01/29 00:47:10;;;;;;;2.77;2.30;;;;;;;3.80;54.55;96706.41;5028887;28;20260;-76
2024/01/29 00:49:35;;;;;;;5.83;2.50;;;;;;;3.75;54.63;96706.66;5008561;28;20656;-76
2024/01/29 00:52:02;;;;;;;2.50;1.80;;;;;;;3.71;55.15;96712.88;5027367;28;20236;-76
2024/01/29 00:54:27;;;;;;;1.73;1.60;;;;;;;3.67;54.64;96706.22;5012354;28;20214;-76
2024/01/29 00:56:53;;;;;;;2.43;1.90;;;;;;;3.64;54.66;96717.50;5016430;28;20201;-76
2024/01/29 00:59:18;;;;;;;2.27;1.70;;;;;;;3.67;53.56;96703.66;5011336;28;20197;-76
2024/01/29 01:01:43;;;;;;;1.90;1.70;;;;;;;3.72;53.68;96706.00;5029582;28;20230;-76
2024/01/29 01:04:09;;;;;;;2.10;1.90;;;;;;;3.70;53.15;96714.59;5012246;28;20225;-76
2024/01/29 01:06:34;;;;;;;2.23;1.90;;;;;;;3.72;52.70;96703.44;5029853;28;20269;-76
2024/01/29 01:08:59;;;;;;;2.70;1.90;;;;;;;3.78;52.65;96710.81;5005081;28;20275;-76
2024/01/29 01:11:24;;;;;;;3.10;1.67;;;;;;;3.78;52.75;96708.25;5029503;28;20234;-76
2024/01/29 01:13:51;;;;;;;1.47;1.37;;;;;;;3.76;52.57;96712.63;5007506;28;20210;-76
2024/01/29 01:16:17;;;;;;;2.57;1.43;;;;;;;3.76;52.10;96712.63;5029964;28;20248;-76
2024/01/29 01:18:42;;;;;;;1.63;1.50;;;;;;;3.75;52.21;96709.25;5012304;28;20194;-76
2024/01/29 01:21:07;;;;;;;2.27;1.57;;;;;;;3.76;51.43;96708.34;5028956;28;20297;-76
2024/01/29 01:23:33;;;;;;;2.43;1.40;;;;;;;3.83;50.66;96708.84;5030047;28;20269;-76
2024/01/29 01:25:58;;;;;;;2.07;1.40;;;;;;;3.85;51.16;96712.16;5003871;28;20199;-76
2024/01/29 01:28:23;;;;;;;3.33;1.50;;;;;;;3.91;50.71;96712.69;5012200;28;20217;-76
2024/01/29 01:30:49;;;;;;;1.73;1.50;;;;;;;3.88;50.30;96712.00;5007002;28;20241;-76
2024/01/29 01:33:14;;;;;;;2.10;1.57;;;;;;;3.98;50.13;96714.06;5015887;28;20264;-76
2024/01/29 01:35:39;;;;;;;1.87;1.53;;;;;;;4.10;49.15;96707.44;5033159;28;20225;-76
2024/01/29 01:38:05;;;;;;;2.03;1.23;;;;;;;4.14;49.27;96708.09;5032058;28;20297;-76
2024/01/29 01:40:30;;;;;;;1.87;1.47;;;;;;;4.13;49.42;96704.69;5032450;28;20214;-76
2024/01/29 01:42:55;;;;;;;2.30;1.57;;;;;;;4.10;49.56;96704.88;5031920;28;20707;-76
2024/01/29 01:45:21;;;;;;;2.40;1.30;;;;;;;4.11;49.28;96709.09;5007777;28;20191;-76
2024/01/29 01:47:46;;;;;;;1.40;1.30;;;;;;;4.09;49.41;96710.09;5007677;28;20190;-76
2024/01/29 01:50:12;;;;;;;1.37;1.27;;;;;;;4.09;49.50;96705.78;5013518;28;20210;-76
2024/01/29 01:52:37;;;;;;;1.50;1.10;;;;;;;4.01;49.72;96707.91;5015323;28;20214;-76
2024/01/29 01:55:03;;;;;;;1.93;1.20;;;;;;;3.94;49.84;96711.69;5031562;28;20224;-76
2024/01/29 01:57:29;;;;;;;2.20;1.57;;;;;;;3.91;50.28;96706.72;5015241;28;20191;-76
2024/01/29 01:59:54;;;;;;;1.20;1.10;;;;;;;3.81;50.54;96713.25;5032352;28;20604;-76
2024/01/29 02:02:20;;;;;;;1.77;1.20;;;;;;;3.75;51.19;96710.97;5032855;28;20190;-76
2024/01/29 02:04:45;;;;;;;2.20;1.20;;;;;;;3.70;50.82;96712.03;5032398;28;20190;-76
2024/01/29 02:07:11;;;;;;;2.07;1.50;;;;;;;3.67;51.03;96709.63;5031473;28;20205;-76
2024/01/29 02:09:36;;;;;;;1.43;1.10;;;;;;;3.72;50.78;96711.97;5031004;28;20185;-76
2024/01/29 02:12:01;;;;;;;1.63;1.20;;;;;;;3.70;50.72;96713.78;4988589;28;20239;-76
2024/01/29 02:14:27;;;;;;;1.13;1.03;;;;;;;3.74;50.59;96714.47;5014822;28;20226;-76
2024/01/29 02:16:52;;;;;;;2.03;1.20;;;;;;;3.77;50.11;96714.28;5032521;28;20662;-76
2024/01/29 02:19:18;;;;;;;1.27;1.17;;;;;;;3.78;50.19;96714.22;5014699;28;20190;-76
2024/01/29 02:21:43;;;;;;;1.50;1.20;;;;;;;3.78;49.88;96708.25;5006823;28;20248;-76
2024/01/29 02:24:09;;;;;;;1.20;1.00;;;;;;;3.80;49.91;96712.41;5009072;28;20186;-76
2024/01/29 02:26:34;;;;;;;0.87;0.87;;;;;;;3.77;49.73;96714.28;5002636;28;20266;-76
2024/01/29 02:28:59;;;;;;;1.57;1.27;;;;;;;3.79;49.88;96713.31;5031180;28;20609;-76
2024/01/29 02:31:25;;;;;;;1.10;0.90;;;;;;;3.80;49.79;96717.56;4995429;28;20247;-76
2024/01/29 02:33:50;;;;;;;1.00;0.90;;;;;;;3.70;50.20;96714.59;5014130;28;20695;-76
2024/01/29 02:36:16;;;;;;;1.30;1.13;;;;;;;3.67;50.67;96716.50;4998173;28;20192;-76
2024/01/29 02:38:42;;;;;;;1.13;1.00;;;;;;;3.63;50.87;96712.44;5032236;28;20270;-76
2024/01/29 02:41:08;;;;;;;1.30;1.00;;;;;;;3.65;50.54;96710.63;5013534;28;20720;-76
2024/01/29 02:43:33;;;;;;;1.70;1.03;;;;;;;3.61;50.63;96715.06;5013448;28;20246;-76
2024/01/29 02:45:58;;;;;;;1.33;1.03;;;;;;;3.64;50.68;96711.53;5030748;28;20541;-76
2024/01/29 02:48:24;;;;;;;0.80;0.80;;;;;;;3.67;50.08;96703.66;5006174;28;20184;-76
2024/01/29 02:50:49;;;;;;;0.97;0.83;;;;;;;3.69;49.79;96705.22;5017706;28;20203;-76
2024/01/29 02:53:14;;;;;;;1.80;1.10;;;;;;;3.65;49.71;96703.75;4997755;28;20210;-76
2024/01/29 02:55:41;;;;;;;1.20;0.83;;;;;;;3.64;50.09;96704.66;5026070;28;20201;-76
2024/01/29 02:58:06;;;;;;;1.37;0.93;;;;;;;3.66;49.80;96707.13;5030550;28;20187;-76
2024/01/29 03:00:32;;;;;;;1.03;0.90;;;;;;;3.70;49.73;96709.47;5016849;28;20325;-76
2024/01/29 03:02:57;;;;;;;2.40;1.10;;;;;;;3.68;49.85;96710.47;5012469;28;20186;-76
2024/01/29 03:05:23;;;;;;;1.10;0.93;;;;;;;3.72;49.91;96711.16;5005866;28;20206;-76
2024/01/29 03:07:48;;;;;;;1.07;0.90;;;;;;;3.63;50.42;96710.69;5005806;28;20233;-76
2024/01/29 03:10:14;;;;;;;2.60;1.10;;;;;;;3.62;50.54;96700.47;5013303;28;20848;-76
2024/01/29 03:12:39;;;;;;;0.97;0.87;;;;;;;3.63;50.46;96699.59;5031525;28;20188;-76
2024/01/29 03:15:05;;;;;;;1.50;1.00;;;;;;;3.57;50.83;96698.16;5029886;28;20277;-77
2024/01/29 03:17:30;;;;;;;1.00;0.87;;;;;;;3.57;50.97;96700.72;4997533;28;20820;-76
2024/01/29 03:19:56;;;;;;;1.17;1.00;;;;;;;3.57;50.93;96698.16;5030828;28;20213;-76
2024/01/29 03:22:22;;;;;;;1.30;0.87;;;;;;;3.54;51.10;96698.31;5008740;28;20209;-76
2024/01/29 03:24:47;;;;;;;2.33;0.70;;;;;;;3.57;51.03;96690.44;5031210;28;20646;-76
2024/01/29 03:27:12;;;;;;;0.73;0.67;;;;;;;3.62;50.66;96693.63;5031073;28;20227;-76
2024/01/29 03:29:37;;;;;;;1.57;0.80;;;;;;;3.63;50.67;96685.00;5012933;28;20193;-76
2024/01/29 03:32:03;;;;;;;0.83;0.70;;;;;;;3.63;50.66;96687.59;5013430;28;20289;-76
2024/01/29 03:34:28;;;;;;;1.33;0.80;;;;;;;3.57;50.88;96682.75;5029735;28;20754;-76
2024/01/29 03:36:54;;;;;;;0.60;0.60;;;;;;;3.58;50.82;96689.53;5013447;28;20198;-76
2024/01/29 03:39:19;;;;;;;0.73;0.70;;;;;;;3.56;51.46;96688.78;5000213;28;20240;-76
2024/01/29 03:41:44;;;;;;;0.63;0.63;;;;;;;3.55;51.49;96686.31;5029336;28;20206;-76
2024/01/29 03:44:10;;;;;;;1.37;0.90;;;;;;;3.58;51.27;96688.72;5029573;28;20191;-76
2024/01/29 03:46:35;;;;;;;0.90;0.50;;;;;;;3.58;50.98;96683.56;5030996;28;20183;-76
2024/01/29 03:49:00;;;;;;;0.60;0.57;;;;;;;3.59;52.11;96695.50;5030900;28;20768;-76
2024/01/29 03:51:26;;;;;;;1.33;0.80;;;;;;;3.57;51.50;96698.16;5011363;28;20256;-76
2024/01/29 03:53:51;;;;;;;0.70;0.70;;;;;;;3.60;51.43;96698.00;5000136;28;20206;-76
2024/01/29 03:56:17;;;;;;;0.60;0.60;;;;;;;3.54;51.83;96695.75;5011330;28;20183;-76
2024/01/29 03:58:42;;;;;;;1.43;0.90;;;;;;;3.58;51.94;96699.81;5020201;28;20197;-76
2024/01/29 04:01:07;;;;;;;1.17;0.80;;;;;;;3.66;50.33;96702.84;5016288;28;20290;-76
2024/01/29 04:03:33;;;;;;;0.77;0.60;;;;;;;3.76;49.93;96702.38;5013094;28;20215;-76
2024/01/29 04:05:58;;;;;;;1.80;0.80;;;;;;;3.82;49.75;96704.63;5030561;28;20187;-76
2024/01/29 04:08:23;;;;;;;0.97;0.80;;;;;;;3.86;49.79;96700.97;5030655;28;20191;-76
2024/01/29 04:10:49;;;;;;;0.50;0.50;;;;;;;3.86;49.64;96703.56;5002635;28;20618;-76
2024/01/29 04:13:14;;;;;;;0.90;0.90;;;;;;;3.83;50.00;96703.72;5012379;28;20297;-76
2024/01/29 04:15:39;;;;;;;0.93;0.80;;;;;;;3.81;50.77;96705.53;5029290;28;20186;-76
2024/01/29 04:18:05;;;;;;;0.97;0.90;;;;;;;3.81;50.78;96708.13;5029329;28;20194;-76
2024/01/29 04:20:30;;;;;;;1.00;0.80;;;;;;;3.81;50.73;96706.38;5028708;28;20213;-76
2024/01/29 04:22:55;;;;;;;0.70;0.70;;;;;;;3.89;49.84;96703.41;5004322;28;20189;-76
2024/01/29 04:25:21;;;;;;;0.90;0.60;;;;;;;4.02;49.08;96709.56;5012531;28;20194;-76
2024/01/29 04:27:46;;;;;;;1.77;0.63;;;;;;;4.07;49.00;96699.06;5000419;28;20214;-76
2024/01/29 04:30:12;;;;;;;1.83;0.53;;;;;;;4.09;49.02;96705.78;5011991;28;20217;-76
2024/01/29 04:32:38;;;;;;;0.60;0.60;;;;;;;4.01;49.78;96702.78;5003477;28;20179;-76
2024/01/29 04:35:03;;;;;;;1.50;0.70;;;;;;;3.98;50.54;96702.94;5028973;28;20238;-76
2024/01/29 04:37:29;;;;;;;2.70;0.90;;;;;;;4.01;50.48;96697.63;5030216;28;20237;-76
2024/01/29 04:39:54;;;;;;;2.90;0.80;;;;;;;3.94;51.12;96696.28;5015420;28;20202;-76
2024/01/29 04:42:20;;;;;;;0.60;0.60;;;;;;;3.94;50.78;96697.09;5030325;28;20289;-76
2024/01/29 04:44:45;;;;;;;0.87;0.80;;;;;;;4.01;50.29;96691.66;5012537;28;20556;-76
2024/01/29 04:47:11;;;;;;;1.63;0.77;;;;;;;4.02;51.05;96691.56;5030196;28;20198;-76
2024/01/29 04:49:36;;;;;;;1.60;0.80;;;;;;;4.03;50.90;96694.97;5029820;28;20194;-76
2024/01/29 04:52:02;;;;;;;1.83;0.93;;;;;;;4.00;51.40;96692.56;5027841;28;20716;-76
2024/01/29 04:54:27;;;;;;;1.77;1.10;;;;;;;4.01;50.91;96692.50;5029818;28;20583;-76
2024/01/29 04:56:52;;;;;;;1.40;1.10;;;;;;;3.98;51.68;96690.91;5028837;28;20190;-76
2024/01/29 04:59:18;;;;;;;1.20;0.77;;;;;;;3.93;52.05;96695.44;4996142;28;20190;-76
2024/01/29 05:01:43;;;;;;;4.20;2.17;;;;;;;3.89;52.46;96693.97;5011777;28;20211;-76
2024/01/29 05:04:09;;;;;;;3.07;1.90;;;;;;;3.81;52.92;96696.09;5028799;28;20301;-76
2024/01/29 05:06:34;;;;;;;3.03;1.47;;;;;;;3.81;53.42;96697.84;5031436;28;20183;-76
2024/01/29 05:09:00;;;;;;;2.77;1.27;;;;;;;3.81;53.42;96697.84;5011216;28;20198;-75
2024/01/29 05:11:26;;;;;;;1.77;1.03;;;;;;;3.77;53.46;96702.28;5008301;28;20202;-76
2024/01/29 05:13:53;;;;;;;1.70;1.20;;;;;;;3.77;53.83;96704.03;4993308;28;20210;-76
2024/01/29 05:16:18;;;;;;;1.37;1.10;;;;;;;3.81;54.02;96710.69;5010024;28;20293;-76
2024/01/29 05:18:43;;;;;;;2.47;1.33;;;;;;;3.78;54.12;96706.50;5031951;28;20188;-76
2024/01/29 05:21:09;;;;;;;1.50;1.10;;;;;;;3.78;54.44;96710.81;5030704;28;20590;-76
2024/01/29 05:23:34;;;;;;;0.83;0.83;;;;;;;3.74;54.59;96706.75;5015055;28;20218;-76
2024/01/29 05:25:59;;;;;;;3.20;1.10;;;;;;;3.76;54.39;96698.06;5031615;28;20183;-75
2024/01/29 05:28:25;;;;;;;1.53;1.10;;;;;;;3.76;54.24;96712.63;4996571;28;20194;-76
2024/01/29 05:30:53;;;;;;;2.10;1.10;;;;;;;3.77;54.13;96710.00;5028689;28;20202;-76
2024/01/29 05:33:19;;;;;;;2.27;1.30;;;;;;;3.73;54.63;96705.09;4998262;28;20206;-76
2024/01/29 05:35:44;;;;;;;2.00;1.70;;;;;;;3.66;54.48;96702.00;5014999;28;20194;-76
2024/01/29 05:38:09;;;;;;;1.90;1.70;;;;;;;3.66;55.01;96702.00;5012677;28;20204;-76
2024/01/29 05:40:35;;;;;;;3.07;2.00;;;;;;;3.67;55.02;96711.38;4995934;28;20214;-76
2024/01/29 05:43:00;;;;;;;2.90;2.00;;;;;;;3.62;55.39;96711.63;5023152;28;20655;-76
2024/01/29 05:45:25;;;;;;;4.47;2.17;;;;;;;3.63;55.53;96717.56;4999275;28;20656;-76
2024/01/29 05:47:51;;;;;;;4.07;2.27;;;;;;;3.61;55.59;96714.22;5011123;28;20706;-76
2024/01/29 05:50:16;;;;;;;3.53;2.07;;;;;;;3.59;55.92;96714.31;4994738;28;20314;-76
2024/01/29 05:52:42;;;;;;;5.43;2.10;;;;;;;3.55;56.48;96712.81;5025518;28;20217;-76
2024/01/29 05:55:07;;;;;;;2.50;1.90;;;;;;;3.58;56.76;96714.41;5009938;28;20182;-76
2024/01/29 05:57:33;;;;;;;1.63;1.53;;;;;;;3.54;56.41;96715.47;4997893;28;20699;-76
2024/01/29 05:59:59;;;;;;;3.70;1.83;;;;;;;3.52;56.78;96717.25;5014189;28;20190;-76
2024/01/29 06:02:24;;;;;;;3.57;1.70;;;;;;;3.54;56.88;96721.44;5008905;28;20682;-76
2024/01/29 06:04:49;;;;;;;2.47;1.60;;;;;;;3.62;57.08;96715.88;5032209;28;20175;-76
2024/01/29 06:07:15;;;;;;;1.77;1.60;;;;;;;3.64;56.76;96717.50;5016657;28;20193;-76
2024/01/29 06:09:40;;;;;;;3.07;1.50;;;;;;;3.74;56.77;96722.16;5014296;28;20184;-76
2024/01/29 06:12:06;;;;;;;1.83;1.70;;;;;;;3.77;57.06;96730.53;5011083;28;20198;-76
2024/01/29 06:14:31;;;;;;;4.80;2.00;;;;;;;3.76;57.06;96734.03;5010251;28;20199;-75
2024/01/29 06:16:57;;;;;;;1.93;1.73;;;;;;;3.82;57.02;96727.75;5028232;28;20696;-76
2024/01/29 06:19:23;;;;;;;2.20;2.00;;;;;;;3.82;57.29;96726.00;4997810;28;20182;-76
2024/01/29 06:21:49;;;;;;;2.60;1.70;;;;;;;3.80;57.11;96727.84;5013704;28;20248;-76
2024/01/29 06:24:15;;;;;;;1.60;1.50;;;;;;;3.75;57.26;96729.78;5000320;28;20189;-76
2024/01/29 06:26:41;;;;;;;2.17;1.50;;;;;;;3.77;57.38;96732.28;5029800;28;20175;-76
2024/01/29 06:29:06;;;;;;;1.93;1.70;;;;;;;3.77;57.30;96727.97;5013233;28;20685;-76
2024/01/29 06:31:32;;;;;;;1.97;1.57;;;;;;;3.70;57.52;96730.00;5013453;28;20210;-76
2024/01/29 06:33:57;;;;;;;2.00;1.60;;;;;;;3.77;57.19;96734.84;5009455;28;20214;-76
2024/01/29 06:36:23;;;;;;;1.70;1.60;;;;;;;3.81;56.54;96736.38;5004275;28;20190;-76
2024/01/29 06:38:48;;;;;;;2.27;1.40;;;;;;;3.88;56.62;96732.56;5014390;28;20192;-76
2024/01/29 06:41:20;;;;;;;2.10;1.93;;;;;;;3.82;56.95;96733.72;5011260;28;20646;-76
2024/01/29 06:43:45;;;;;;;2.37;1.73;;;;;;;3.76;57.16;96738.34;4996561;28;20187;-76
2024/01/29 06:46:10;;;;;;;2.67;1.30;;;;;;;3.77;57.03;96734.84;5006461;28;20218;-76
2024/01/29 06:48:37;;;;;;;1.87;1.47;;;;;;;3.77;57.04;96738.25;4997950;28;20283;-77
2024/01/29 06:51:03;;;;;;;2.03;1.50;;;;;;;3.74;56.90;96737.59;5031293;28;20280;-77
2024/01/29 06:53:28;;;;;;;1.63;1.53;;;;;;;3.74;56.90;96745.28;4999214;28;20703;-76
2024/01/29 06:55:54;;;;;;;1.63;1.53;;;;;;;3.73;57.18;96735.94;5015765;28;20552;-77
2024/01/29 06:58:19;;;;;;;3.73;1.93;;;;;;;3.71;57.28;96733.44;5008339;28;20191;-77
2024/01/29 07:00:44;;;;;;;2.13;1.77;;;;;;;3.75;57.20;96744.38;5032764;28;20204;-76
2024/01/29 07:03:10;;;;;;;3.23;1.80;;;;;;;3.77;56.69;96748.53;5025366;28;20206;-76
2024/01/29 07:05:35;;;;;;;1.60;1.50;;;;;;;3.87;56.66;96746.31;5030892;28;20184;-76
2024/01/29 07:08:00;;;;;;;1.97;1.20;;;;;;;3.94;56.03;96745.94;5016757;28;20188;-76
2024/01/29 07:10:26;;;;;;;1.50;1.30;;;;;;;3.99;55.90;96750.88;4996377;28;20255;-76
2024/01/29 07:12:51;;;;;;;2.40;1.80;;;;;;;4.04;55.49;96750.59;5010368;28;20605;-76
2024/01/29 07:15:18;;;;;;;2.00;1.77;;;;;;;4.02;55.89;96753.25;5017303;28;20691;-76
2024/01/29 07:17:44;;;;;;;3.03;1.30;;;;;;;3.98;56.12;96759.47;5026810;28;20666;-76
2024/01/29 07:20:10;;;;;;;2.17;1.40;;;;;;;4.03;55.06;96762.63;5029149;28;20206;-75
2024/01/29 07:22:37;;;;;;;6.40;3.63;;;;;;;4.14;54.79;96760.34;5029690;28;20277;-76
2024/01/29 07:25:04;;;;;;;3.00;2.20;;;;;;;4.25;54.39;96776.06;5008133;28;20237;-76
2024/01/29 07:27:30;;;;;;;1.60;1.17;;;;;;;4.34;53.61;96766.22;4997145;28;20242;-76
2024/01/29 07:29:55;;;;;;;2.50;1.40;;;;;;;4.39;53.78;96769.38;5009513;28;20594;-76
2024/01/29 07:32:20;;;;;;;2.03;1.20;;;;;;;4.39;53.68;96765.03;5026507;28;20187;-76
2024/01/29 07:34:46;;;;;;;2.37;2.17;;;;;;;4.31;54.33;96772.31;5012773;28;20775;-75
2024/01/29 07:37:12;;;;;;;4.30;2.83;;;;;;;4.28;54.87;96771.66;5012959;28;20731;-75
2024/01/29 07:39:38;;;;;;;2.80;2.50;;;;;;;4.26;54.65;96774.31;5007069;28;20201;-76
2024/01/29 07:42:04;;;;;;;3.30;2.00;;;;;;;4.29;54.98;96778.47;5029294;28;20264;-76
2024/01/29 07:44:29;;;;;;;4.23;2.20;;;;;;;4.31;55.31;96786.94;5010556;28;20844;-76
2024/01/29 07:46:54;;;;;;;3.50;2.90;;;;;;;4.44;53.58;96780.25;5029011;28;20774;-76
2024/01/29 07:49:20;;;;;;;3.50;1.87;;;;;;;4.49;53.53;96786.81;5008544;28;20313;-75
2024/01/29 07:51:45;;;;;;;2.93;1.80;;;;;;;4.57;53.61;96783.84;5012033;28;20208;-75
2024/01/29 07:54:11;;;;;;;3.53;2.00;;;;;;;4.67;52.96;96792.72;5026650;28;20220;-75
2024/01/29 07:56:39;;;;;;;5.63;2.70;;;;;;;4.67;53.51;96789.31;5030915;28;20707;-76
2024/01/29 07:59:05;;;;;;;3.30;2.50;;;;;;;4.71;53.77;96791.66;5002594;28;20190;-76
2024/01/29 08:01:30;;;;;;;2.60;1.97;;;;;;;4.88;53.33;96792.50;4996388;28;20213;-76
2024/01/29 08:03:55;;;;;;;2.93;1.90;;;;;;;5.08;52.16;96802.56;5011058;28;20256;-76
2024/01/29 08:06:20;;;;;;;2.37;1.63;;;;;;;5.23;51.48;96791.41;5028134;28;20623;-76
2024/01/29 08:08:46;;;;;;;3.20;1.40;;;;;;;5.40;50.61;96791.31;5011813;28;20178;-76
2024/01/29 08:11:12;;;;;;;3.77;2.07;;;;;;;5.56;50.18;96796.41;5009972;28;20293;-76
2024/01/29 08:13:37;;;;;;;1.93;1.67;;;;;;;5.68;49.66;96802.66;5011904;28;20289;-76
2024/01/29 08:16:03;;;;;;;2.30;1.83;;;;;;;5.82;49.79;96800.09;5008727;28;20198;-76
2024/01/29 08:18:28;;;;;;;1.60;1.50;;;;;;;5.95;49.48;96798.53;5027341;28;20194;-76
2024/01/29 08:20:55;;;;;;;2.27;1.23;;;;;;;6.07;49.47;96807.28;5008526;28;20309;-76
2024/01/29 08:23:20;;;;;;;2.23;1.80;;;;;;;6.18;49.77;96807.50;5007864;28;20667;-75
2024/01/29 08:25:45;;;;;;;4.83;1.90;;;;;;;6.33;49.55;96812.66;5004103;28;20278;-77
2024/01/29 08:28:11;;;;;;;2.50;1.50;;;;;;;6.48;49.00;96814.34;5028445;28;20266;-76
2024/01/29 08:30:36;;;;;;;2.30;1.67;;;;;;;6.61;49.16;96812.69;5029307;28;20205;-76
2024/01/29 08:33:02;;;;;;;1.73;1.63;;;;;;;6.65;49.27;96818.50;5028022;28;20669;-75
2024/01/29 08:35:28;;;;;;;2.17;1.30;;;;;;;6.85;48.21;96822.44;5026778;28;20265;-76
2024/01/29 08:37:53;;;;;;;1.63;1.20;;;;;;;7.09;46.51;96819.19;5009736;28;20182;-76
2024/01/29 08:40:19;;;;;;;2.07;1.67;;;;;;;7.33;46.40;96821.16;5009034;28;20237;-76
2024/01/29 08:42:44;;;;;;;2.97;1.33;;;;;;;7.44;46.54;96823.91;5000061;28;20558;-75
2024/01/29 08:45:15;;;;;;;2.20;1.73;;;;;;;7.52;46.28;96826.84;5029469;28;20183;-76
2024/01/29 08:47:40;;;;;;;4.40;1.70;;;;;;;7.56;46.41;96820.53;5030726;28;20218;-76
2024/01/29 08:50:06;;;;;;;2.27;2.07;;;;;;;7.75;45.05;96827.09;5032886;28;20221;-76
2024/01/29 08:52:31;;;;;;;2.47;2.17;;;;;;;7.91;44.09;96832.94;5031799;28;20221;-76
2024/01/29 08:54:56;;;;;;;2.63;1.63;;;;;;;8.03;43.08;96841.66;5014549;28;20236;-78
2024/01/29 08:57:22;;;;;;;2.80;2.00;;;;;;;8.20;42.04;96831.84;5006486;28;20245;-76
2024/01/29 08:59:47;;;;;;;2.80;1.70;;;;;;;8.36;42.82;96836.88;5011310;28;20182;-77
2024/01/29 09:02:13;;;;;;;1.87;1.70;;;;;;;8.52;42.71;96836.69;5016684;28;20256;-77
2024/01/29 09:04:38;;;;;;;2.70;1.47;;;;;;;8.71;41.38;96834.50;5035133;28;20249;-77
2024/01/29 09:07:03;;;;;;;2.03;1.60;;;;;;;8.91;41.07;96842.66;5015858;28;20855;-76
2024/01/29 09:09:29;;;;;;;2.63;1.50;;;;;;;8.99;41.28;96837.78;5015593;28;20186;-76
2024/01/29 09:11:55;;;;;;;2.70;1.57;;;;;;;9.11;40.98;96833.53;5031092;28;20203;-76
2024/01/29 09:14:21;;;;;;;2.50;1.63;;;;;;;9.30;40.38;96844.25;5014300;28;20634;-76
2024/01/29 09:16:47;;;;;;;2.30;1.80;;;;;;;9.36;39.96;96849.84;5031984;28;20198;-76
2024/01/29 09:19:13;;;;;;;2.03;1.73;;;;;;;9.48;39.78;96849.91;5015647;28;20208;-76
2024/01/29 09:21:41;;;;;;;3.03;2.73;;;;;;;9.61;40.41;96856.69;4997933;28;20206;-76
2024/01/29 09:24:06;;;;;;;6.43;5.00;;;;;;;9.71;39.96;96856.84;5008719;28;20182;-76
2024/01/29 09:26:31;;;;;;;4.57;3.87;;;;;;;9.81;39.57;96849.25;5001058;28;20194;-77
2024/01/29 09:28:57;;;;;;;18.43;16.53;;;;;;;9.95;39.54;96862.03;5033025;28;20586;-76
2024/01/29 09:31:22;;;;;;;8.67;7.97;;;;;;;9.99;40.23;96860.06;5032207;28;20558;-77
2024/01/29 09:33:48;;;;;;;16.50;15.07;;;;;;;10.05;40.39;96854.41;5032361;28;20276;-77
2024/01/29 09:36:13;;;;;;;2.87;2.63;;;;;;;10.05;40.56;96854.41;4997930;28;20198;-77
2024/01/29 09:38:39;;;;;;;3.13;2.80;;;;;;;10.10;40.06;96862.69;5033024;28;20217;-76
2024/01/29 09:41:04;;;;;;;6.87;3.87;;;;;;;10.12;40.58;96861.63;5030671;28;20668;-76
2024/01/29 09:43:33;;;;;;;4.43;3.53;;;;;;;10.25;40.67;96864.19;5032731;28;20290;-76
2024/01/29 09:46:01;;;;;;;1.97;1.47;;;;;;;10.31;41.10;96860.31;5031782;28;20197;-77
2024/01/29 09:48:27;;;;;;;2.87;2.40;;;;;;;10.36;40.61;96860.81;5012570;28;20190;-76
2024/01/29 09:50:53;;;;;;;2.03;1.77;;;;;;;10.46;40.58;96861.75;4991945;28;20582;-77
2024/01/29 09:53:20;;;;;;;2.33;1.50;;;;;;;10.60;40.19;96865.91;5031395;28;20210;-76
2024/01/29 09:55:46;;;;;;;1.93;1.77;;;;;;;10.73;40.05;96871.84;5014810;28;20179;-76
2024/01/29 09:58:11;;;;;;;3.20;1.40;;;;;;;10.81;39.23;96864.31;4998185;28;20194;-77
2024/01/29 10:00:37;;;;;;;1.67;1.30;;;;;;;10.88;39.74;96860.28;5014443;28;20684;-76
2024/01/29 10:03:06;;;;;;;2.53;1.37;;;;;;;10.96;39.53;96863.13;5030921;28;20202;-77
2024/01/29 10:05:31;;;;;;;1.87;1.43;;;;;;;11.05;39.29;96861.59;5013286;28;20233;-77
2024/01/29 10:07:58;;;;;;;2.27;1.30;;;;;;;11.14;39.35;96868.69;5018922;28;20187;-77
2024/01/29 10:10:27;;;;;;;1.97;1.53;;;;;;;11.17;38.91;96865.84;5013088;28;20700;-77
2024/01/29 10:13:03;;;;;;;2.57;1.60;;;;;;;11.30;39.39;96865.69;4998259;28;20730;-76
2024/01/29 10:15:29;;;;;;;3.27;2.00;;;;;;;11.44;39.02;96867.22;5014156;28;20182;-76
2024/01/29 10:17:55;;;;;;;8.87;4.80;;;;;;;11.55;38.58;96862.81;4998023;28;20193;-76
2024/01/29 10:20:20;;;;;;;9.93;5.00;;;;;;;11.69;38.75;96868.72;5013493;28;20202;-76
2024/01/29 10:22:46;;;;;;;5.57;2.80;;;;;;;11.82;38.41;96867.63;5014388;28;20275;-76
2024/01/29 10:25:13;;;;;;;8.57;5.10;;;;;;;11.92;38.04;96867.72;5013740;28;20273;-77
2024/01/29 10:27:39;;;;;;;4.03;2.80;;;;;;;12.03;38.29;96869.47;5009022;28;20189;-77
2024/01/29 10:30:06;;;;;;;6.10;4.07;;;;;;;12.09;38.28;96869.78;5013943;28;20548;-76
2024/01/29 10:32:31;;;;;;;3.90;3.50;;;;;;;12.20;38.13;96866.34;4997531;28;20189;-76
2024/01/29 10:34:56;;;;;;;5.90;4.27;;;;;;;12.17;38.13;96861.34;5009693;28;21173;-77
2024/01/29 10:37:26;;;;;;;2.83;2.10;;;;;;;12.23;37.88;96866.06;5030676;28;20251;-77
2024/01/29 10:39:54;;;;;;;2.77;2.43;;;;;;;12.34;38.02;96862.56;5005253;28;20249;-77
2024/01/29 10:42:20;;;;;;;1.77;1.60;;;;;;;12.27;37.49;96862.25;5009466;28;20186;-77
2024/01/29 10:44:46;;;;;;;3.20;1.80;;;;;;;12.36;37.50;96858.06;5012683;28;20188;-77
2024/01/29 10:47:27;;;;;;;2.70;1.53;;;;;;;12.38;37.71;96864.81;5005670;28;20187;-76
2024/01/29 10:49:53;;;;;;;2.37;1.90;;;;;;;12.37;38.28;96857.13;5012075;28;20280;-77
2024/01/29 10:52:19;;;;;;;1.90;1.60;;;;;;;12.44;37.78;96853.88;5029711;28;20273;-76
2024/01/29 10:54:44;;;;;;;1.77;1.50;;;;;;;12.52;37.84;96850.63;5013175;28;20293;-76
2024/01/29 10:57:10;;;;;;;2.57;2.03;;;;;;;12.69;37.44;96847.44;5012792;28;20186;-78
2024/01/29 10:59:38;;;;;;;3.63;2.87;;;;;;;12.82;37.14;96851.66;5010343;28;20196;-76
2024/01/29 11:02:04;;;;;;;2.80;2.60;;;;;;;12.93;36.66;96847.16;5011941;28;20209;-77
2024/01/29 11:04:30;;;;;;;3.30;2.53;;;;;;;12.97;36.46;96845.94;5008961;28;20549;-77
2024/01/29 11:07:11;;;;;;;2.57;2.37;;;;;;;12.96;36.62;96844.28;5030032;28;20182;-76
2024/01/29 11:09:37;;;;;;;7.03;5.43;;;;;;;12.99;36.24;96838.00;5013459;28;20262;-77
2024/01/29 11:12:04;;;;;;;5.53;4.93;;;;;;;13.04;35.94;96841.84;4996866;28;20293;-76
2024/01/29 11:14:29;;;;;;;2.77;2.53;;;;;;;13.17;36.35;96848.63;4994833;28;20203;-77
2024/01/29 11:16:55;;;;;;;2.63;2.00;;;;;;;13.31;36.35;96838.69;5029371;28;20183;-77
2024/01/29 11:19:22;;;;;;;4.17;2.10;;;;;;;13.47;35.84;96835.56;5012964;28;20190;-77
2024/01/29 11:21:49;;;;;;;1.83;1.63;;;;;;;13.37;35.99;96836.50;5029096;28;20647;-77
2024/01/29 11:24:15;;;;;;;1.80;1.60;;;;;;;13.41;37.06;96830.03;5010523;28;20187;-78
2024/01/29 11:26:40;;;;;;;4.30;1.73;;;;;;;13.51;36.56;96829.09;5003775;28;20914;-77
2024/01/29 11:29:06;;;;;;;2.70;1.53;;;;;;;13.63;37.51;96831.63;5010663;28;20193;-78
2024/01/29 11:31:39;;;;;;;3.13;2.00;;;;;;;13.65;37.27;96825.28;5011850;28;20229;-78